Time;durP1;ratioP1;P1;durP2;ratioP2;P2;SDS_P1;SDS_P2;PMS_P1;PMS_P2;Temp;Humidity;BMP_temperature;BMP_pressure;BME280_temperature;BME280_humidity;BME280_pressure;Samples;Min_cycle;Max_cycle;Signal;HPM_P1;HPM_P2
2022/07/08 05:46:40;;;;;;;5.67;2.00;;;;;;;22.20;52.85;98352.44;6100569;23;20306;-93
2022/07/08 05:49:06;;;;;;;4.10;2.10;;;;;;;21.52;53.01;98229.34;6038555;23;20168;-93
2022/07/08 05:51:33;;;;;;;6.23;2.10;;;;;;;20.81;53.76;98105.38;6062559;23;20184;-93
2022/07/08 05:54:00;;;;;;;3.80;1.90;;;;;;;23.30;53.84;98549.97;6061533;23;20173;-92
2022/07/08 05:56:27;;;;;;;5.57;2.23;;;;;;;21.96;54.31;98316.47;6038422;23;20160;-93
2022/07/08 05:59:00;;;;;;;4.70;2.03;;;;;;;22.28;54.55;98377.53;6064270;23;20200;-93
2022/07/08 06:01:27;;;;;;;4.97;2.17;;;;;;;23.13;54.81;98517.59;6039463;23;20157;-93
2022/07/08 06:03:53;;;;;;;4.57;1.87;;;;;;;22.35;54.68;98389.75;6038713;23;20446;-93
2022/07/08 06:06:20;;;;;;;5.07;2.30;;;;;;;22.56;54.61;98416.25;6038736;23;20176;-93
2022/07/08 06:08:49;;;;;;;3.33;2.07;;;;;;;22.50;55.33;98421.13;6062191;23;20217;-93
2022/07/08 06:11:16;;;;;;;3.80;2.03;;;;;;;21.64;55.24;98255.41;6038356;23;20168;-92
2022/07/08 06:13:43;;;;;;;4.87;2.43;;;;;;;22.49;55.53;98403.09;6062257;23;20164;-93
2022/07/08 06:16:11;;;;;;;2.93;1.70;;;;;;;23.30;55.12;98558.50;6061134;23;20188;-93
2022/07/08 06:18:37;;;;;;;5.73;2.00;;;;;;;22.26;55.76;98368.03;6034438;23;20169;-92
2022/07/08 06:21:04;;;;;;;3.97;2.07;;;;;;;21.35;55.73;98204.78;6061959;23;20335;-93
2022/07/08 06:23:31;;;;;;;4.70;2.10;;;;;;;22.11;55.65;98352.06;6064103;23;20172;-93
2022/07/08 06:25:58;;;;;;;7.07;1.80;;;;;;;22.88;55.97;98490.13;6042654;23;20157;-93
2022/07/08 06:28:25;;;;;;;3.73;2.07;;;;;;;21.65;55.96;98268.25;6042834;23;20163;-93
2022/07/08 06:30:52;;;;;;;5.67;1.93;;;;;;;22.40;55.97;98408.75;6066541;23;20149;-94
2022/07/08 06:33:19;;;;;;;3.30;1.83;;;;;;;21.59;55.92;98273.13;6066556;23;20160;-93
2022/07/08 06:35:45;;;;;;;5.37;1.90;;;;;;;23.20;56.37;98546.13;6065697;23;20247;-93
2022/07/08 06:38:12;;;;;;;3.77;1.80;;;;;;;22.33;55.97;98395.63;6066755;23;20163;-93
2022/07/08 06:40:39;;;;;;;3.87;1.83;;;;;;;21.97;56.37;98336.16;6066129;23;20181;-93
2022/07/08 06:43:06;;;;;;;2.73;1.80;;;;;;;23.13;56.79;98549.28;6042350;23;20184;-93
2022/07/08 06:45:32;;;;;;;3.90;1.80;;;;;;;23.14;56.49;98537.31;6046146;23;20180;-91
2022/07/08 06:47:59;;;;;;;4.70;1.93;;;;;;;22.07;56.57;98357.84;6069587;23;20168;-94
2022/07/08 06:50:26;;;;;;;2.73;1.60;;;;;;;21.99;56.56;98354.13;6066795;23;20180;-90
2022/07/08 06:52:53;;;;;;;4.67;1.80;;;;;;;22.32;56.38;98388.78;6064427;23;20168;-93
2022/07/08 06:55:20;;;;;;;2.73;1.50;;;;;;;22.25;56.69;98397.00;6063142;23;20180;-93
2022/07/08 06:57:47;;;;;;;4.50;2.10;;;;;;;22.28;56.36;98392.88;6041477;23;20160;-93
2022/07/08 07:00:14;;;;;;;3.90;1.70;;;;;;;23.08;56.48;98534.50;6064329;23;20216;-93
2022/07/08 07:02:46;;;;;;;3.40;1.77;;;;;;;21.89;56.52;98319.59;6065478;23;20172;-93
2022/07/08 07:05:13;;;;;;;4.97;1.83;;;;;;;21.70;56.67;98291.47;6041119;23;20164;-93
2022/07/08 07:07:42;;;;;;;2.23;1.37;;;;;;;21.61;56.61;98286.88;6065050;23;20172;-93
2022/07/08 07:10:09;;;;;;;2.93;1.63;;;;;;;23.39;57.00;98611.88;6064499;23;20181;-94
2022/07/08 07:12:36;;;;;;;3.13;1.67;;;;;;;23.24;56.62;98591.63;6041163;23;20187;-93
2022/07/08 07:15:03;;;;;;;4.20;1.60;;;;;;;22.08;57.04;98377.53;6041106;23;20172;-93
2022/07/08 07:17:29;;;;;;;3.13;1.60;;;;;;;22.20;56.62;98393.41;6064705;23;20189;-94
2022/07/08 07:19:57;;;;;;;2.73;1.33;;;;;;;22.84;56.69;98510.47;6087863;23;20402;-93
2022/07/08 07:22:26;;;;;;;3.03;1.80;;;;;;;23.31;56.84;98596.19;6064366;23;20247;-93
2022/07/08 07:24:53;;;;;;;1.73;1.50;;;;;;;22.19;56.91;98394.19;6040717;23;20161;-93
2022/07/08 07:27:20;;;;;;;1.97;1.50;;;;;;;21.37;56.45;98269.63;6067928;23;20160;-94
2022/07/08 07:29:46;;;;;;;3.13;1.63;;;;;;;21.91;56.40;98343.59;6064511;23;20185;-93
2022/07/08 07:32:13;;;;;;;2.00;1.53;;;;;;;22.35;57.18;98430.72;6089023;23;20174;-93
2022/07/08 07:34:40;;;;;;;2.07;1.40;;;;;;;21.95;57.18;98337.78;6066083;23;20167;-91
2022/07/08 07:37:07;;;;;;;1.83;1.37;;;;;;;22.79;57.33;98502.59;6066496;23;20156;-93
2022/07/08 07:39:34;;;;;;;1.70;1.60;;;;;;;22.26;57.10;98397.06;6065951;23;20216;-94
2022/07/08 07:42:01;;;;;;;2.30;1.40;;;;;;;22.02;56.92;98356.81;6065106;23;20180;-94
2022/07/08 07:44:28;;;;;;;2.27;1.40;;;;;;;21.44;56.70;98264.84;6065678;23;20166;-93
2022/07/08 07:46:54;;;;;;;2.03;1.60;;;;;;;22.48;57.24;98460.28;6066010;23;20164;-93
2022/07/08 07:49:21;;;;;;;2.43;1.50;;;;;;;22.99;57.25;98540.16;6042368;23;20233;-93
2022/07/08 07:51:48;;;;;;;2.20;1.50;;;;;;;22.08;57.29;98372.44;6065429;23;20149;-92
2022/07/08 07:54:15;;;;;;;1.90;1.50;;;;;;;22.56;56.99;98471.75;6042468;23;20165;-93
2022/07/08 07:56:42;;;;;;;2.60;1.70;;;;;;;21.88;57.37;98338.34;6066000;23;20178;-92
2022/07/08 07:59:08;;;;;;;2.03;1.53;;;;;;;21.46;57.06;98281.13;6065060;23;20253;-93
2022/07/08 08:01:35;;;;;;;3.53;1.50;;;;;;;22.97;57.17;98549.47;6042576;23;20176;-93
2022/07/08 08:04:02;;;;;;;2.80;1.53;;;;;;;22.33;57.18;98436.59;6066239;23;20298;-93
2022/07/08 08:06:29;;;;;;;2.13;1.30;;;;;;;21.93;57.34;98351.31;6065576;23;20192;-93
2022/07/08 08:08:57;;;;;;;2.57;1.53;;;;;;;22.93;57.04;98523.63;6066475;23;20208;-93
2022/07/08 08:11:24;;;;;;;2.43;1.50;;;;;;;22.06;57.29;98385.16;6066721;23;20168;-93
2022/07/08 08:13:51;;;;;;;1.70;1.30;;;;;;;23.09;57.37;98555.06;6043805;23;20188;-93
2022/07/08 08:16:17;;;;;;;1.77;1.50;;;;;;;21.89;57.08;98357.13;6091081;23;20220;-92
2022/07/08 08:18:44;;;;;;;1.83;1.50;;;;;;;22.34;57.01;98438.34;6043216;23;20341;-93
2022/07/08 08:21:11;;;;;;;1.80;1.40;;;;;;;22.21;56.97;98406.25;6042334;23;20239;-94
2022/07/08 08:23:38;;;;;;;1.80;1.30;;;;;;;22.08;57.53;98414.25;6066207;23;20194;-93
2022/07/08 08:26:04;;;;;;;2.10;1.50;;;;;;;22.38;57.39;98438.53;6043812;23;20196;-93
2022/07/08 08:28:31;;;;;;;2.40;1.50;;;;;;;23.01;56.89;98565.84;6067694;23;20161;-92
2022/07/08 08:30:59;;;;;;;3.77;1.83;;;;;;;22.62;57.13;98483.09;6067542;23;20204;-93
2022/07/08 08:33:26;;;;;;;1.83;1.47;;;;;;;22.17;57.31;98414.63;6067388;23;20157;-92
2022/07/08 08:35:52;;;;;;;1.73;1.43;;;;;;;22.90;57.54;98537.22;6066965;23;20180;-93
2022/07/08 08:38:19;;;;;;;2.53;1.50;;;;;;;22.27;57.25;98446.59;6043603;23;20176;-93
2022/07/08 08:40:46;;;;;;;3.27;1.50;;;;;;;22.29;57.89;98435.59;6090893;23;20196;-92
2022/07/08 08:43:13;;;;;;;1.80;1.50;;;;;;;23.08;57.48;98583.22;6066574;23;20200;-93
2022/07/08 08:45:43;;;;;;;1.47;1.30;;;;;;;22.99;57.56;98570.03;6044938;23;20220;-90
2022/07/08 08:48:10;;;;;;;2.70;1.37;;;;;;;21.54;57.54;98310.47;6093572;23;20171;-89
2022/07/08 08:50:54;;;;;;;2.50;1.57;;;;;;;22.65;57.69;98492.63;6092573;23;20172;-93
2022/07/08 08:53:30;;;;;;;1.30;1.20;;;;;;;22.06;57.64;98386.84;6090063;23;20172;-92
2022/07/08 08:56:00;;;;;;;1.43;1.30;;;;;;;22.58;58.26;98498.28;6066299;23;20176;-92
2022/07/08 08:58:27;;;;;;;1.50;1.40;;;;;;;21.99;57.54;98377.16;6067362;23;20168;-93
2022/07/08 09:00:53;;;;;;;2.63;1.47;;;;;;;22.78;58.31;98525.59;6066664;23;20191;-93
2022/07/08 09:03:20;;;;;;;2.67;1.43;;;;;;;23.32;57.91;98615.00;6042292;23;20188;-93
2022/07/08 09:05:48;;;;;;;4.37;1.60;;;;;;;22.73;57.57;98498.91;6041584;23;20175;-92
2022/07/08 20:02:14;;;;;;;1.80;1.57;;;;;;;23.70;59.56;98599.41;6116067;23;20287;-94
2022/07/08 20:04:46;;;;;;;1.37;1.27;;;;;;;21.59;59.43;98244.13;6077024;23;20195;-94
2022/07/08 20:07:18;;;;;;;1.87;1.40;;;;;;;21.56;59.58;98244.00;6095408;23;20171;-95
2022/07/08 20:09:52;;;;;;;1.40;1.30;;;;;;;21.38;59.42;98210.88;6077501;23;20180;-93
2022/07/08 20:12:20;;;;;;;1.50;1.40;;;;;;;21.07;59.35;98161.88;6074703;23;20190;-93
2022/07/08 20:14:49;;;;;;;1.30;1.20;;;;;;;21.75;59.49;98291.69;6075988;23;20235;-93
2022/07/08 20:17:22;;;;;;;1.47;1.30;;;;;;;21.42;59.43;98229.78;6077215;23;20156;-95
2022/07/08 20:19:51;;;;;;;1.40;1.30;;;;;;;21.17;59.64;98191.25;6077107;23;20187;-94
2022/07/08 20:22:20;;;;;;;1.40;1.30;;;;;;;21.23;59.83;98196.63;6052447;23;20144;-96
2022/07/08 21:02:29;;;;;;;1.17;1.07;;;;;;;21.29;59.54;98194.31;6122423;23;20175;-94
2022/07/08 22:04:20;;;;;;;1.50;1.40;;;;;;;21.32;59.86;98202.09;6119637;23;20206;-92
2022/07/08 22:06:49;;;;;;;1.80;1.30;;;;;;;20.93;59.74;98128.88;6051486;23;20220;-94
2022/07/08 22:09:18;;;;;;;1.40;1.30;;;;;;;22.27;60.02;98336.50;6074761;23;20196;-94
2022/07/08 22:11:47;;;;;;;1.40;1.30;;;;;;;21.77;59.77;98259.38;6071852;23;20171;-94
2022/07/08 22:14:17;;;;;;;1.47;1.37;;;;;;;21.01;59.85;98120.75;6051063;23;20159;-94
2022/07/08 22:16:46;;;;;;;1.43;1.30;;;;;;;21.04;59.70;98154.09;6074524;23;20179;-94
2022/07/08 22:19:17;;;;;;;1.40;1.30;;;;;;;21.01;59.86;98130.06;6098979;23;20175;-94
2022/07/08 22:21:49;;;;;;;1.60;1.50;;;;;;;21.01;59.91;98137.75;6074653;23;20156;-94
